createdAt,value
2018-11-29T00:00:52.842Z,90.28
2018-11-29T00:12:58.140Z,90.05
2018-11-29T00:15:28.166Z,89.99
2018-11-29T00:17:58.129Z,90.09
2018-11-29T00:20:53.615Z,90.38
2018-11-29T00:23:23.795Z,90.46
2018-11-29T00:29:23.213Z,90.37
2018-11-29T00:31:53.270Z,90.51
2018-11-29T00:34:23.291Z,90.80
2018-11-29T00:53:49.419Z,90.14
2018-11-29T00:56:47.303Z,89.83
2018-11-29T00:59:17.426Z,89.90
2018-11-29T01:05:54.719Z,90.02
2018-11-29T01:08:24.635Z,89.62
2018-11-29T01:23:26.463Z,90.19
2018-11-29T01:25:56.536Z,90.17
2018-11-29T01:28:26.604Z,89.73
2018-11-29T01:30:57.157Z,89.59
2018-11-29T01:33:27.150Z,90.57
2018-11-29T01:35:57.111Z,90.26
2018-11-29T01:38:27.069Z,90.84
2018-11-29T01:40:57.011Z,90.37
2018-11-29T01:52:37.725Z,90.21
2018-11-29T01:55:09.938Z,90.65
2018-11-29T01:58:05.648Z,90.61
2018-11-29T02:04:50.570Z,90.48
2018-11-29T02:07:20.477Z,90.25
2018-11-29T02:10:14.521Z,90.43
2018-11-29T02:12:44.528Z,89.85
2018-11-29T02:15:35.141Z,89.63
2018-11-29T02:18:05.174Z,90.31
2018-11-29T02:20:35.461Z,90.57
2018-11-29T02:29:37.476Z,89.75
2018-11-29T02:32:07.665Z,89.37
2018-11-29T02:34:37.783Z,90.00
2018-11-29T02:40:18.666Z,90.20
2018-11-29T02:46:07.661Z,90.36
2018-11-29T02:54:49.781Z,90.05
2018-11-29T02:57:19.936Z,90.20
2018-11-29T02:59:50.753Z,90.56
2018-11-29T03:02:20.844Z,90.23
2018-11-29T03:04:50.867Z,89.84
2018-11-29T03:10:30.475Z,90.71
2018-11-29T03:13:00.649Z,90.31
2018-11-29T03:15:30.573Z,90.54
2018-11-29T03:18:19.055Z,90.20
2018-11-29T03:20:48.992Z,90.34
2018-11-29T03:26:28.221Z,89.92
2018-11-29T03:28:58.271Z,90.14
2018-11-29T03:31:28.202Z,90.50
2018-11-29T03:33:58.138Z,89.97
2018-11-29T03:36:28.024Z,89.77
2018-11-29T03:48:29.975Z,90.55
2018-11-29T03:54:20.077Z,90.11
2018-11-29T03:56:54.563Z,90.20
2018-11-29T03:59:24.990Z,90.00
2018-11-29T04:01:55.397Z,90.56
2018-11-29T04:10:36.404Z,90.90
2018-11-29T04:13:06.929Z,90.71
2018-11-29T04:15:37.120Z,90.56
2018-11-29T04:18:07.640Z,90.22
2018-11-29T04:27:11.831Z,90.61
2018-11-29T04:32:51.260Z,90.55
2018-11-29T04:35:21.204Z,90.55
2018-11-29T04:37:51.207Z,90.71
2018-11-29T04:40:37.473Z,90.84
2018-11-29T04:43:08.528Z,90.98
2018-11-29T04:45:54.809Z,91.45
2018-11-29T04:48:24.742Z,91.09
2018-11-29T04:50:57.702Z,91.43
2018-11-29T04:53:27.755Z,91.11
2018-11-29T04:55:57.700Z,90.92
2018-11-29T04:58:27.927Z,90.54
2018-11-29T05:04:08.671Z,90.81
2018-11-29T05:06:38.865Z,91.36
2018-11-29T05:09:11.266Z,91.39
2018-11-29T05:11:41.590Z,90.92
2018-11-29T05:14:12.248Z,90.92
2018-11-29T05:17:05.988Z,91.12
2018-11-29T05:19:36.044Z,90.84
2018-11-29T05:22:18.280Z,91.17
2018-11-29T05:24:48.200Z,90.86
2018-11-29T05:27:18.195Z,90.94
2018-11-29T05:32:58.307Z,90.99
2018-11-29T05:35:28.297Z,90.57
2018-11-29T05:38:26.167Z,90.85
2018-11-29T05:40:56.628Z,91.03
2018-11-29T05:43:26.739Z,90.90
2018-11-29T05:45:56.779Z,91.21
2018-11-29T05:48:26.729Z,91.02
2018-11-29T05:50:56.841Z,91.20
2018-11-29T05:53:26.786Z,91.19
2018-11-29T05:55:56.791Z,91.10
2018-11-29T05:58:26.883Z,91.09
2018-11-29T06:00:57.270Z,90.75
2018-11-29T06:03:27.193Z,91.63
2018-11-29T06:06:11.561Z,90.93
2018-11-29T06:08:49.240Z,91.30
2018-11-29T06:11:25.211Z,91.35
2018-11-29T06:13:57.751Z,91.40
2018-11-29T06:16:28.534Z,91.36
2018-11-29T06:18:58.586Z,91.70
2018-11-29T06:21:28.549Z,91.08
2018-11-29T06:23:58.564Z,91.40
2018-11-29T06:26:28.574Z,91.44
2018-11-29T06:29:10.308Z,91.41
2018-11-29T06:31:40.279Z,91.42
2018-11-29T06:34:10.185Z,91.43
2018-11-29T06:36:40.287Z,91.54
2018-11-29T06:39:10.721Z,91.31
2018-11-29T06:41:40.966Z,91.14
2018-11-29T06:44:10.919Z,91.16
2018-11-29T06:46:45.100Z,91.31
2018-11-29T06:49:15.142Z,90.71
2018-11-29T06:52:04.658Z,90.92
2018-11-29T06:54:34.705Z,90.52
2018-11-29T06:57:04.750Z,90.80
2018-11-29T06:59:34.706Z,90.84
2018-11-29T07:02:07.984Z,90.90
2018-11-29T07:04:46.298Z,91.16
2018-11-29T07:07:16.317Z,90.65
2018-11-29T07:09:46.425Z,90.88
2018-11-29T07:12:40.987Z,90.75
2018-11-29T07:15:13.405Z,90.61
2018-11-29T07:17:44.151Z,90.55
2018-11-29T07:20:24.424Z,90.49
2018-11-29T07:22:54.393Z,90.48
2018-11-29T07:25:24.478Z,90.16
2018-11-29T07:27:54.479Z,90.07
2018-11-29T07:30:24.610Z,90.11
2018-11-29T07:32:54.602Z,90.12
2018-11-29T07:35:25.373Z,90.22
2018-11-29T07:37:57.204Z,90.00
2018-11-29T07:40:27.192Z,90.44
2018-11-29T07:42:57.287Z,90.08
2018-11-29T07:45:27.209Z,90.15
2018-11-29T07:47:57.334Z,90.13
2018-11-29T07:50:27.358Z,89.61
2018-11-29T07:52:57.391Z,89.30
2018-11-29T07:55:36.303Z,89.71
2018-11-29T07:58:08.029Z,88.90
2018-11-29T08:00:43.184Z,88.81
2018-11-29T08:03:13.327Z,88.69
2018-11-29T08:05:44.434Z,88.57
2018-11-29T08:08:15.081Z,88.66
2018-11-29T08:10:45.162Z,88.76
2018-11-29T08:13:21.221Z,87.94
2018-11-29T08:15:51.407Z,88.35
2018-11-29T08:18:45.567Z,88.62
2018-11-29T08:21:38.105Z,88.34
2018-11-29T08:24:08.159Z,88.09
2018-11-29T08:26:38.448Z,88.18
2018-11-29T08:29:08.636Z,87.57
2018-11-29T08:32:05.108Z,88.15
2018-11-29T08:34:46.719Z,87.60
2018-11-29T08:37:38.290Z,87.55
2018-11-29T08:40:38.879Z,86.49
2018-11-29T08:43:09.187Z,87.16
2018-11-29T08:45:39.173Z,86.77
2018-11-29T08:48:09.312Z,86.02
2018-11-29T08:53:44.472Z,86.47
2018-11-29T08:56:20.788Z,86.20
2018-11-29T08:59:15.634Z,86.25
2018-11-29T09:01:45.661Z,85.21
2018-11-29T09:04:15.771Z,84.96
2018-11-29T09:06:45.780Z,85.41
2018-11-29T09:09:25.338Z,85.28
2018-11-29T09:12:08.450Z,85.62
2018-11-29T09:14:38.723Z,84.89
2018-11-29T09:17:10.286Z,85.23
2018-11-29T09:19:38.946Z,84.95
2018-11-29T09:22:08.944Z,84.91
2018-11-29T09:24:39.042Z,84.83
2018-11-29T09:27:21.379Z,84.27
2018-11-29T09:33:16.853Z,84.12
2018-11-29T09:38:56.362Z,83.95
2018-11-29T09:41:26.450Z,83.59
2018-11-29T09:43:56.439Z,83.43
2018-11-29T09:46:54.385Z,83.36
2018-11-29T09:49:24.615Z,82.54
2018-11-29T09:54:55.254Z,83.10
2018-11-29T09:57:25.401Z,84.37
2018-11-29T09:59:55.688Z,85.46
2018-11-29T10:02:27.863Z,85.88
2018-11-29T10:05:00.894Z,85.94
2018-11-29T10:07:31.249Z,85.83
2018-11-29T10:10:01.421Z,85.30
2018-11-29T10:12:31.511Z,85.26
2018-11-29T10:15:01.505Z,85.74
2018-11-29T10:17:31.448Z,85.01
2018-11-29T10:20:01.472Z,85.28
2018-11-29T10:22:31.558Z,85.98
2018-11-29T10:25:09.850Z,85.71
2018-11-29T10:28:05.641Z,85.51
2018-11-29T10:33:34.241Z,85.39
2018-11-29T10:36:04.586Z,85.62
2018-11-29T10:38:48.821Z,84.87
2018-11-29T10:41:18.926Z,85.03
2018-11-29T10:43:48.993Z,85.17
2018-11-29T10:46:19.077Z,84.95
2018-11-29T10:52:00.040Z,84.35
2018-11-29T10:54:48.232Z,84.38
2018-11-29T10:57:18.607Z,84.33
2018-11-29T10:59:48.595Z,84.15
2018-11-29T11:05:38.278Z,83.57
2018-11-29T11:14:38.299Z,84.70
2018-11-29T11:29:22.426Z,83.83
2018-11-29T11:31:52.572Z,83.80
2018-11-29T11:34:22.680Z,83.55
2018-11-29T11:36:52.795Z,84.14
2018-11-29T11:42:33.562Z,83.97
2018-11-29T11:45:03.585Z,84.10
2018-11-29T11:47:33.609Z,84.30
2018-11-29T11:50:03.743Z,84.36
2018-11-29T11:52:33.809Z,84.67
2018-11-29T11:55:10.457Z,84.41
2018-11-29T11:58:10.278Z,84.89
2018-11-29T12:01:05.530Z,85.07
2018-11-29T12:03:35.846Z,85.44
2018-11-29T12:06:07.052Z,85.73
2018-11-29T12:11:46.881Z,86.20
2018-11-29T12:14:17.509Z,86.32
2018-11-29T12:16:50.905Z,86.54
2018-11-29T12:19:25.834Z,87.21
2018-11-29T12:21:57.164Z,86.69
2018-11-29T12:24:27.373Z,87.29
2018-11-29T12:26:57.404Z,86.97
2018-11-29T12:29:27.560Z,88.02
2018-11-29T12:32:25.964Z,87.93
2018-11-29T12:38:10.027Z,88.24
2018-11-29T12:44:15.129Z,87.90
2018-11-29T12:46:45.189Z,87.68
2018-11-29T12:52:24.911Z,87.74
2018-11-29T12:54:54.857Z,87.79
2018-11-29T12:57:24.860Z,87.73
2018-11-29T12:59:58.434Z,88.05
2018-11-29T13:02:28.536Z,87.96
2018-11-29T13:04:58.700Z,87.90
2018-11-29T13:07:28.840Z,87.81
2018-11-29T13:10:21.444Z,87.67
2018-11-29T13:12:56.160Z,87.74
2018-11-29T13:15:30.848Z,87.13
2018-11-29T13:18:09.764Z,87.03
2018-11-29T13:20:39.881Z,86.63
2018-11-29T13:23:10.008Z,86.79
2018-11-29T13:26:05.651Z,86.19
2018-11-29T13:34:21.266Z,86.56
2018-11-29T13:36:51.429Z,86.47
2018-11-29T13:39:21.471Z,86.18
2018-11-29T13:41:51.479Z,86.92
2018-11-29T13:44:24.468Z,86.55
2018-11-29T13:46:54.611Z,86.77
2018-11-29T13:49:24.601Z,86.86
2018-11-29T13:52:06.285Z,86.19
2018-11-29T13:54:36.392Z,86.08
2018-11-29T13:57:06.734Z,86.34
2018-11-29T13:59:39.682Z,86.50
2018-11-29T14:02:09.791Z,86.09
2018-11-29T14:07:52.090Z,86.14
2018-11-29T14:10:23.518Z,86.67
2018-11-29T14:16:18.378Z,85.16
2018-11-29T14:18:48.383Z,84.98
2018-11-29T14:21:18.567Z,84.96
2018-11-29T14:24:04.638Z,85.17
2018-11-29T14:29:37.278Z,85.19
2018-11-29T14:32:12.822Z,84.85
2018-11-29T14:34:42.941Z,84.93
2018-11-29T14:37:23.796Z,85.26
2018-11-29T14:39:54.295Z,84.30
2018-11-29T14:42:46.763Z,84.30
2018-11-29T14:45:25.803Z,84.38
2018-11-29T14:47:56.545Z,84.05
2018-11-29T14:53:22.320Z,84.38
2018-11-29T14:55:53.695Z,83.47
2018-11-29T14:58:24.113Z,82.59
2018-11-29T15:00:54.336Z,83.56
2018-11-29T15:03:25.807Z,82.94
2018-11-29T15:05:56.631Z,83.26
2018-11-29T15:08:26.685Z,82.36
2018-11-29T15:10:58.198Z,81.69
2018-11-29T15:13:31.588Z,81.16
2018-11-29T15:16:08.905Z,80.61
2018-11-29T15:18:38.946Z,79.74
2018-11-29T15:21:12.583Z,78.50
2018-11-29T15:23:49.943Z,79.88
2018-11-29T15:29:21.016Z,80.18
2018-11-29T15:32:10.817Z,80.27
2018-11-29T15:35:08.008Z,79.93
2018-11-29T15:37:38.635Z,79.49
2018-11-29T15:40:11.645Z,79.02
2018-11-29T15:42:43.958Z,79.58
2018-11-29T15:45:18.894Z,79.08
2018-11-29T15:48:42.120Z,79.64
2018-11-29T15:51:12.629Z,78.37
2018-11-29T15:53:43.282Z,77.25
2018-11-29T15:56:13.446Z,77.33
2018-11-29T15:58:43.480Z,78.42
2018-11-29T16:04:26.593Z,77.73
2018-11-29T16:07:06.612Z,78.01
2018-11-29T16:09:36.804Z,78.65
2018-11-29T16:12:08.362Z,78.07
2018-11-29T16:14:38.458Z,78.38
2018-11-29T16:17:48.910Z,77.16
2018-11-29T16:20:28.477Z,76.63
2018-11-29T16:23:09.958Z,77.17
2018-11-29T16:28:41.851Z,76.35
2018-11-29T16:31:36.562Z,77.44
2018-11-29T16:34:13.489Z,76.00
2018-11-29T16:37:07.054Z,76.53
2018-11-29T16:39:37.328Z,76.89
2018-11-29T16:42:08.279Z,76.82
2018-11-29T16:44:38.953Z,76.63
2018-11-29T16:47:09.862Z,77.37
2018-11-29T16:49:42.140Z,76.32
2018-11-29T16:52:17.593Z,76.04
2018-11-29T16:54:47.813Z,75.63
2018-11-29T16:57:19.449Z,75.26
2018-11-29T16:59:51.005Z,75.28
2018-11-29T17:02:26.402Z,75.42
2018-11-29T17:04:56.483Z,75.00
2018-11-29T17:07:28.912Z,75.24
2018-11-29T17:13:13.381Z,74.35
2018-11-29T17:15:45.616Z,74.71
2018-11-29T17:18:37.366Z,74.87
2018-11-29T17:21:19.195Z,75.18
2018-11-29T17:23:52.413Z,74.55
2018-11-29T17:26:24.218Z,74.45
2018-11-29T17:29:16.427Z,75.19
2018-11-29T17:31:46.552Z,75.10
2018-11-29T17:34:17.137Z,75.67
2018-11-29T17:36:48.105Z,75.51
2018-11-29T17:48:27.246Z,75.27
2018-11-29T17:50:57.784Z,74.83
2018-11-29T17:53:27.885Z,74.40
2018-11-29T17:56:25.896Z,74.31
2018-11-29T17:58:56.291Z,74.83
2018-11-29T18:04:38.693Z,75.10
2018-11-29T18:07:09.952Z,75.08
2018-11-29T18:09:40.064Z,74.60
2018-11-29T18:12:11.046Z,74.55
2018-11-29T18:14:48.265Z,74.96
2018-11-29T18:17:18.831Z,75.73
2018-11-29T18:19:48.831Z,75.02
2018-11-29T18:22:18.876Z,74.60
2018-11-29T18:24:48.941Z,75.28
2018-11-29T18:27:19.995Z,76.09
2018-11-29T18:32:59.646Z,75.32
2018-11-29T18:35:29.525Z,76.01
2018-11-29T18:37:59.385Z,75.66
2018-11-29T18:40:29.299Z,76.42
2018-11-29T18:43:00.442Z,76.66
2018-11-29T18:45:54.315Z,75.50
2018-11-29T18:48:27.204Z,75.50
2018-11-29T18:59:58.696Z,74.34
2018-11-29T19:02:30.631Z,76.18
2018-11-29T19:05:00.906Z,75.80
2018-11-29T19:07:39.939Z,75.55
2018-11-29T19:10:23.470Z,75.76
2018-11-29T19:13:09.019Z,75.86
2018-11-29T19:15:39.045Z,76.58
2018-11-29T19:18:39.351Z,75.32
2018-11-29T19:24:40.164Z,75.69
2018-11-29T20:02:50.675Z,74.56
2018-11-29T20:05:20.894Z,74.50
2018-11-29T20:07:51.093Z,73.35
2018-11-29T20:10:25.975Z,74.63
2018-11-29T20:13:01.956Z,73.72
2018-11-29T20:15:40.522Z,74.19
2018-11-29T20:18:12.540Z,74.21
2018-11-29T20:20:42.942Z,74.82
2018-11-29T20:23:14.092Z,75.08
2018-11-29T20:29:15.754Z,74.36
2018-11-29T20:31:45.692Z,74.35
2018-11-29T20:34:15.899Z,74.04
2018-11-29T20:36:45.822Z,75.05
2018-11-29T20:39:18.040Z,75.13
2018-11-29T20:41:48.922Z,74.14
2018-11-29T20:44:18.927Z,74.40
2018-11-29T20:49:52.134Z,74.71
2018-11-29T20:52:30.214Z,75.36
2018-11-29T20:55:00.725Z,74.88
2018-11-29T20:57:30.767Z,74.16
2018-11-29T21:00:00.845Z,74.33
2018-11-29T21:09:06.083Z,74.73
2018-11-29T21:11:37.271Z,74.40
2018-11-29T21:14:07.756Z,74.94
2018-11-29T21:19:44.817Z,74.48
2018-11-29T21:28:39.841Z,75.57
2018-11-29T21:31:13.324Z,75.31
2018-11-29T21:37:00.758Z,75.19
2018-11-29T21:39:30.865Z,74.84
2018-11-29T21:42:02.122Z,75.13
2018-11-29T21:44:32.272Z,75.61
2018-11-29T21:47:06.464Z,74.65
2018-11-29T21:49:36.771Z,75.46
2018-11-29T21:52:06.823Z,75.85
2018-11-29T21:54:37.093Z,75.10
2018-11-29T21:57:09.715Z,75.14
2018-11-29T22:00:06.050Z,75.20
2018-11-29T22:02:41.714Z,75.65
2018-11-29T22:05:09.615Z,75.37
2018-11-29T22:07:39.964Z,75.91
2018-11-29T22:10:10.051Z,75.42
2018-11-29T22:12:40.145Z,76.54
2018-11-29T22:15:12.337Z,76.07
2018-11-29T22:18:22.165Z,76.19
2018-11-29T22:21:01.514Z,76.37
2018-11-29T22:26:51.712Z,76.71
2018-11-29T22:29:21.836Z,76.40
2018-11-29T22:31:53.299Z,76.62
2018-11-29T22:34:23.446Z,75.95
2018-11-29T22:36:53.502Z,76.34
2018-11-29T22:39:23.621Z,76.64
2018-11-29T22:41:53.772Z,76.96
2018-11-29T22:44:23.813Z,76.04
2018-11-29T22:46:54.005Z,76.68
2018-11-29T22:49:26.030Z,76.71
2018-11-29T22:51:56.309Z,76.61
2018-11-29T22:54:26.341Z,77.03
2018-11-29T22:57:02.689Z,76.71
2018-11-29T22:59:32.716Z,77.08
2018-11-29T23:02:02.961Z,77.25
2018-11-29T23:04:46.419Z,77.00
2018-11-29T23:07:16.603Z,77.71
2018-11-29T23:09:46.678Z,77.77
2018-11-29T23:12:21.891Z,77.40
2018-11-29T23:14:51.906Z,77.07
2018-11-29T23:17:22.026Z,77.44
2018-11-29T23:19:59.385Z,77.24
2018-11-29T23:22:29.553Z,77.53
2018-11-29T23:25:00.605Z,77.33
2018-11-29T23:33:51.937Z,77.53
2018-11-29T23:36:22.017Z,77.61
2018-11-29T23:38:52.033Z,77.42
2018-11-29T23:41:21.973Z,77.71
2018-11-29T23:44:18.527Z,77.65
2018-11-29T23:47:06.375Z,77.29
2018-11-29T23:49:36.448Z,77.65
2018-11-29T23:55:28.389Z,77.58
2018-11-29T23:57:58.612Z,77.18
